Time;durP1;ratioP1;P1;durP2;ratioP2;P2;SDS_P1;SDS_P2;PMS_P1;PMS_P2;Temp;Humidity;BMP_temperature;BMP_pressure;BME280_temperature;BME280_humidity;BME280_pressure;Samples;Min_cycle;Max_cycle;Signal;HPM_P1;HPM_P2
2022/03/27 00:01:32;;;;;;;1.52;0.90;;;;;;;;;;5048122;28;20049;-64
2022/03/27 00:03:59;;;;;;;1.45;1.10;;;;;;;;;;5046385;28;20029;-65
2022/03/27 00:06:25;;;;;;;1.40;1.10;;;;;;;;;;5048133;28;20029;-64
2022/03/27 00:08:51;;;;;;;3.25;1.13;;;;;;;;;;5043822;28;20102;-70
2022/03/27 00:11:27;;;;;;;5.07;1.17;;;;;;;;;;5055260;28;20056;-66
2022/03/27 00:13:54;;;;;;;2.53;1.10;;;;;;;;;;5025945;28;20025;-67
2022/03/27 00:16:20;;;;;;;3.60;1.13;;;;;;;;;;5037947;28;20045;-66
2022/03/27 00:18:47;;;;;;;3.83;1.27;;;;;;;;;;5047376;28;20033;-69
2022/03/27 00:21:13;;;;;;;13.57;1.30;;;;;;;;;;5031096;28;20072;-71
2022/03/27 00:23:39;;;;;;;2.72;0.93;;;;;;;;;;5037223;28;20109;-69
2022/03/27 00:26:06;;;;;;;5.15;1.30;;;;;;;;;;5047026;28;20025;-64
2022/03/27 00:28:32;;;;;;;12.10;1.10;;;;;;;;;;5040353;28;20072;-69
2022/03/27 00:31:01;;;;;;;2.50;1.15;;;;;;;;;;5039067;28;20498;-68
2022/03/27 00:33:28;;;;;;;3.50;1.00;;;;;;;;;;5039630;28;20060;-65
2022/03/27 00:35:57;;;;;;;2.80;1.10;;;;;;;;;;5031134;28;20029;-66
2022/03/27 00:38:23;;;;;;;3.80;1.20;;;;;;;;;;5039980;28;20030;-68
2022/03/27 00:40:50;;;;;;;3.70;1.30;;;;;;;;;;5045824;28;20051;-63
2022/03/27 00:43:17;;;;;;;1.95;1.20;;;;;;;;;;5042270;28;20044;-65
2022/03/27 00:45:43;;;;;;;6.82;1.40;;;;;;;;;;5044760;28;20552;-66
2022/03/27 00:48:09;;;;;;;3.45;1.30;;;;;;;;;;5030171;28;20097;-64
2022/03/27 00:50:35;;;;;;;6.90;1.15;;;;;;;;;;5045431;28;20037;-69
2022/03/27 00:53:01;;;;;;;3.55;1.10;;;;;;;;;;5036738;28;20036;-67
2022/03/27 00:55:27;;;;;;;2.08;1.00;;;;;;;;;;5048647;28;20033;-66
2022/03/27 00:57:52;;;;;;;4.38;1.20;;;;;;;;;;5045832;28;20017;-68
2022/03/27 01:00:37;;;;;;;2.10;1.45;;;;;;;;;;5048559;28;20036;-67
2022/03/27 01:03:04;;;;;;;1.52;1.15;;;;;;;;;;5043804;28;20021;-67
2022/03/27 01:05:31;;;;;;;2.40;1.40;;;;;;;;;;5042847;28;20033;-65
2022/03/27 01:07:57;;;;;;;4.43;1.10;;;;;;;;;;5045012;28;20070;-68
2022/03/27 01:10:24;;;;;;;3.30;1.23;;;;;;;;;;5045363;28;20038;-68
2022/03/27 01:12:51;;;;;;;3.42;1.40;;;;;;;;;;5042823;28;20033;-67
2022/03/27 01:15:39;;;;;;;1.23;1.08;;;;;;;;;;5050825;28;20041;-68
2022/03/27 01:18:06;;;;;;;2.65;1.20;;;;;;;;;;5044399;28;20024;-66
2022/03/27 01:20:36;;;;;;;3.88;1.30;;;;;;;;;;5040862;28;20021;-66
2022/03/27 01:23:02;;;;;;;2.45;0.93;;;;;;;;;;5044498;28;20032;-64
2022/03/27 01:25:28;;;;;;;1.20;1.05;;;;;;;;;;5042088;28;20026;-65
2022/03/27 01:27:54;;;;;;;1.10;1.00;;;;;;;;;;5046495;28;20025;-66
2022/03/27 01:30:20;;;;;;;2.67;1.10;;;;;;;;;;5043933;28;20162;-68
2022/03/27 01:32:50;;;;;;;2.83;1.30;;;;;;;;;;5049079;28;20557;-66
2022/03/27 01:35:16;;;;;;;2.15;1.00;;;;;;;;;;5047545;28;20451;-62
2022/03/27 01:37:42;;;;;;;1.45;1.20;;;;;;;;;;5043712;28;20099;-65
2022/03/27 01:40:08;;;;;;;1.20;1.10;;;;;;;;;;5045793;28;20025;-65
2022/03/27 01:42:34;;;;;;;1.48;1.23;;;;;;;;;;5039174;28;20040;-66
2022/03/27 01:45:00;;;;;;;2.55;1.20;;;;;;;;;;5037973;28;20045;-67
2022/03/27 01:47:26;;;;;;;3.15;1.38;;;;;;;;;;5040069;28;20021;-66
2022/03/27 01:49:53;;;;;;;1.85;1.20;;;;;;;;;;5030674;28;20041;-66
2022/03/27 01:52:19;;;;;;;1.05;0.95;;;;;;;;;;5042581;28;20048;-66
2022/03/27 01:54:45;;;;;;;3.42;1.15;;;;;;;;;;5043526;28;20033;-67
2022/03/27 01:57:13;;;;;;;2.25;1.00;;;;;;;;;;5024086;28;20029;-66
2022/03/27 01:59:39;;;;;;;1.98;1.10;;;;;;;;;;5042301;28;20484;-66
2022/03/27 02:02:05;;;;;;;1.98;0.98;;;;;;;;;;5036286;28;20079;-65
2022/03/27 02:04:35;;;;;;;3.05;1.08;;;;;;;;;;5037790;28;20522;-67
2022/03/27 02:07:01;;;;;;;2.72;1.20;;;;;;;;;;5013610;28;20018;-68
2022/03/27 02:09:27;;;;;;;1.60;1.10;;;;;;;;;;5040876;28;20025;-68
2022/03/27 02:11:53;;;;;;;1.55;1.00;;;;;;;;;;5038515;28;20036;-61
2022/03/27 02:14:19;;;;;;;2.05;1.10;;;;;;;;;;5052091;28;20021;-65
2022/03/27 02:16:45;;;;;;;2.88;1.50;;;;;;;;;;5039986;28;20079;-68
2022/03/27 02:19:12;;;;;;;3.97;1.38;;;;;;;;;;5033941;28;20552;-67
2022/03/27 02:21:41;;;;;;;1.83;1.10;;;;;;;;;;5040076;28;20051;-65
2022/03/27 02:24:08;;;;;;;2.30;1.40;;;;;;;;;;5035029;28;20026;-68
2022/03/27 02:26:34;;;;;;;1.40;1.23;;;;;;;;;;5029082;28;20029;-67
2022/03/27 02:29:00;;;;;;;2.22;1.30;;;;;;;;;;5043125;28;20091;-64
2022/03/27 02:31:26;;;;;;;2.13;1.20;;;;;;;;;;5039381;28;20029;-65
2022/03/27 02:33:52;;;;;;;1.90;1.27;;;;;;;;;;5044126;28;20109;-62
2022/03/27 02:36:19;;;;;;;2.70;1.40;;;;;;;;;;5032569;28;20104;-63
2022/03/27 02:38:45;;;;;;;5.72;1.40;;;;;;;;;;5042837;28;20029;-65
2022/03/27 02:41:12;;;;;;;1.88;1.27;;;;;;;;;;5040679;28;20029;-66
2022/03/27 02:43:38;;;;;;;1.45;1.35;;;;;;;;;;5039617;28;20037;-66
2022/03/27 02:46:05;;;;;;;3.75;1.40;;;;;;;;;;5039623;28;20060;-64
2022/03/27 02:48:31;;;;;;;2.42;1.15;;;;;;;;;;5044087;28;20021;-68
2022/03/27 02:50:57;;;;;;;2.78;1.40;;;;;;;;;;5032010;28;20045;-67
2022/03/27 02:53:23;;;;;;;2.58;1.50;;;;;;;;;;5015399;28;20120;-65
2022/03/27 02:55:49;;;;;;;1.77;1.25;;;;;;;;;;5043729;28;20295;-70
2022/03/27 02:58:15;;;;;;;1.85;1.48;;;;;;;;;;5040623;28;20036;-66
2022/03/27 03:00:41;;;;;;;1.50;1.30;;;;;;;;;;5027555;28;20024;-65
2022/03/27 03:03:08;;;;;;;2.28;1.40;;;;;;;;;;5046309;28;20029;-67
2022/03/27 03:05:34;;;;;;;1.20;1.10;;;;;;;;;;5021949;28;20048;-67
2022/03/27 03:08:01;;;;;;;3.08;1.33;;;;;;;;;;5035153;28;20029;-65
2022/03/27 03:10:29;;;;;;;2.00;1.38;;;;;;;;;;5025093;28;20047;-67
2022/03/27 03:12:55;;;;;;;4.68;1.42;;;;;;;;;;5037260;28;20123;-63
2022/03/27 03:15:23;;;;;;;2.65;1.27;;;;;;;;;;5046198;28;20127;-65
2022/03/27 03:17:50;;;;;;;1.50;1.40;;;;;;;;;;5042616;28;20385;-66
2022/03/27 03:20:16;;;;;;;2.70;1.17;;;;;;;;;;5036196;28;20151;-67
2022/03/27 03:22:43;;;;;;;3.55;1.30;;;;;;;;;;5036213;28;20021;-69
2022/03/27 03:25:09;;;;;;;2.38;1.38;;;;;;;;;;5039920;28;20028;-69
2022/03/27 03:27:36;;;;;;;1.40;1.30;;;;;;;;;;5039261;28;20033;-68
2022/03/27 03:30:02;;;;;;;1.35;1.23;;;;;;;;;;5050235;28;20033;-64
2022/03/27 03:32:28;;;;;;;2.20;1.50;;;;;;;;;;5040940;28;20435;-62
2022/03/27 03:34:54;;;;;;;2.75;1.30;;;;;;;;;;5046838;28;20024;-62
2022/03/27 03:37:20;;;;;;;1.48;1.30;;;;;;;;;;5049531;28;20017;-70
2022/03/27 03:39:47;;;;;;;2.42;1.50;;;;;;;;;;5043700;28;20071;-71
2022/03/27 03:42:13;;;;;;;4.07;1.38;;;;;;;;;;5034885;28;20025;-69
2022/03/27 03:44:39;;;;;;;3.63;1.50;;;;;;;;;;5035204;28;20099;-67
2022/03/27 03:47:05;;;;;;;2.85;1.40;;;;;;;;;;5035830;28;20109;-65
2022/03/27 03:49:31;;;;;;;2.22;1.50;;;;;;;;;;5044763;28;20076;-67
2022/03/27 03:51:57;;;;;;;2.42;1.40;;;;;;;;;;5040763;28;20053;-65
2022/03/27 03:54:23;;;;;;;3.90;1.25;;;;;;;;;;5034883;28;20025;-64
2022/03/27 03:56:49;;;;;;;1.40;1.30;;;;;;;;;;5032093;28;20064;-66
2022/03/27 03:59:15;;;;;;;1.67;1.48;;;;;;;;;;5049322;28;21323;-65
2022/03/27 04:01:41;;;;;;;2.35;1.40;;;;;;;;;;5045757;28;20056;-63
2022/03/27 04:04:07;;;;;;;2.53;1.55;;;;;;;;;;5044749;28;20029;-69
2022/03/27 04:06:33;;;;;;;1.92;1.60;;;;;;;;;;5049609;28;20021;-63
2022/03/27 04:08:59;;;;;;;4.40;1.88;;;;;;;;;;5025416;28;20079;-67
2022/03/27 04:11:25;;;;;;;5.65;1.70;;;;;;;;;;5047628;28;20032;-70
2022/03/27 04:13:51;;;;;;;1.75;1.40;;;;;;;;;;5049972;28;20033;-67
2022/03/27 04:16:17;;;;;;;1.95;1.75;;;;;;;;;;5044889;28;20577;-68
2022/03/27 04:18:43;;;;;;;2.53;1.50;;;;;;;;;;5046087;28;20033;-67
2022/03/27 04:21:09;;;;;;;1.80;1.70;;;;;;;;;;5027100;28;20083;-62
2022/03/27 04:23:36;;;;;;;2.83;1.95;;;;;;;;;;5045355;28;20029;-60
2022/03/27 04:26:03;;;;;;;3.28;1.88;;;;;;;;;;5040663;28;20028;-66
2022/03/27 04:28:29;;;;;;;7.50;1.70;;;;;;;;;;5027683;28;20024;-61
2022/03/27 04:30:55;;;;;;;2.20;1.80;;;;;;;;;;5041767;28;20044;-70
2022/03/27 04:33:21;;;;;;;3.75;1.80;;;;;;;;;;5040786;28;20022;-64
2022/03/27 04:35:48;;;;;;;1.85;1.70;;;;;;;;;;5045004;28;20483;-63
2022/03/27 04:38:14;;;;;;;3.92;1.90;;;;;;;;;;5039773;28;20030;-63
2022/03/27 04:40:40;;;;;;;3.00;2.25;;;;;;;;;;5034490;28;20104;-66
2022/03/27 04:43:07;;;;;;;3.05;1.90;;;;;;;;;;5041577;28;20160;-71
2022/03/27 04:45:33;;;;;;;1.77;1.67;;;;;;;;;;5048599;28;20033;-67
2022/03/27 04:47:59;;;;;;;2.50;1.50;;;;;;;;;;5045147;28;20025;-64
2022/03/27 04:50:25;;;;;;;2.53;1.65;;;;;;;;;;5049343;28;20036;-69
2022/03/27 04:52:51;;;;;;;2.85;1.67;;;;;;;;;;5049393;28;20033;-65
2022/03/27 04:55:17;;;;;;;2.08;1.48;;;;;;;;;;5040026;28;20029;-63
2022/03/27 04:57:43;;;;;;;2.20;1.52;;;;;;;;;;5050779;28;20033;-63
2022/03/27 05:00:11;;;;;;;3.25;1.55;;;;;;;;;;5035151;28;20108;-65
2022/03/27 05:02:37;;;;;;;2.15;1.60;;;;;;;;;;5049660;28;20483;-68
2022/03/27 05:05:04;;;;;;;1.52;1.42;;;;;;;;;;5038051;28;20155;-69
2022/03/27 05:07:30;;;;;;;3.25;1.40;;;;;;;;;;5042648;28;20467;-63
2022/03/27 05:09:56;;;;;;;1.95;1.42;;;;;;;;;;5043156;28;20116;-68
2022/03/27 05:12:22;;;;;;;3.47;1.70;;;;;;;;;;5025656;28;20164;-64
2022/03/27 05:14:48;;;;;;;1.55;1.45;;;;;;;;;;5029626;28;20121;-66
2022/03/27 05:17:14;;;;;;;2.05;1.20;;;;;;;;;;5036196;28;20109;-67
2022/03/27 05:19:41;;;;;;;1.52;1.42;;;;;;;;;;5035472;28;20108;-63
2022/03/27 05:22:07;;;;;;;2.47;1.48;;;;;;;;;;5038696;28;20021;-67
2022/03/27 05:24:33;;;;;;;4.93;1.60;;;;;;;;;;5034722;28;20029;-61
2022/03/27 05:26:59;;;;;;;2.03;1.73;;;;;;;;;;5038848;28;20041;-68
2022/03/27 05:29:25;;;;;;;3.17;1.40;;;;;;;;;;5048498;28;20036;-65
2022/03/27 05:31:54;;;;;;;2.70;1.48;;;;;;;;;;5042229;28;20068;-65
2022/03/27 05:34:20;;;;;;;6.90;1.80;;;;;;;;;;5039007;28;20090;-68
2022/03/27 05:36:46;;;;;;;1.80;1.50;;;;;;;;;;5046478;28;20061;-65
2022/03/27 05:39:12;;;;;;;4.13;1.38;;;;;;;;;;5046318;28;20036;-61
2022/03/27 05:41:38;;;;;;;1.83;1.27;;;;;;;;;;5040434;28;20029;-63
2022/03/27 05:44:04;;;;;;;2.35;1.48;;;;;;;;;;5040524;28;20380;-66
2022/03/27 05:46:30;;;;;;;2.50;1.50;;;;;;;;;;5040052;28;20033;-64
2022/03/27 05:48:56;;;;;;;2.17;1.30;;;;;;;;;;5048929;28;20028;-67
2022/03/27 05:51:22;;;;;;;1.73;1.50;;;;;;;;;;5038986;28;20045;-67
2022/03/27 05:53:48;;;;;;;2.33;1.42;;;;;;;;;;5033207;28;20017;-66
2022/03/27 05:56:14;;;;;;;4.07;1.30;;;;;;;;;;5041508;28;20032;-69
2022/03/27 05:58:40;;;;;;;1.40;1.30;;;;;;;;;;5044682;28;20056;-63
2022/03/27 06:01:06;;;;;;;1.75;1.30;;;;;;;;;;5051556;28;20052;-62
2022/03/27 06:03:33;;;;;;;1.55;1.40;;;;;;;;;;5019125;28;20510;-67
2022/03/27 06:05:59;;;;;;;1.98;1.30;;;;;;;;;;5047254;28;20033;-67
2022/03/27 06:08:25;;;;;;;1.80;1.48;;;;;;;;;;5017942;28;20025;-67
2022/03/27 06:10:51;;;;;;;1.30;1.20;;;;;;;;;;5040944;28;20035;-64
2022/03/27 06:13:19;;;;;;;3.83;1.77;;;;;;;;;;5042481;28;20361;-65
2022/03/27 06:15:45;;;;;;;1.55;1.35;;;;;;;;;;5035252;28;20193;-61
2022/03/27 06:18:12;;;;;;;1.60;1.40;;;;;;;;;;5039351;28;20045;-63
2022/03/27 06:20:38;;;;;;;1.38;1.27;;;;;;;;;;5033768;28;20033;-66
2022/03/27 06:23:06;;;;;;;2.53;1.38;;;;;;;;;;5031944;28;20033;-65
2022/03/27 06:25:33;;;;;;;4.53;1.70;;;;;;;;;;5022040;28;20422;-69
2022/03/27 06:27:59;;;;;;;2.47;2.28;;;;;;;;;;5046615;28;20028;-64
2022/03/27 06:30:27;;;;;;;2.08;1.90;;;;;;;;;;5034279;28;20120;-67
2022/03/27 06:32:53;;;;;;;13.15;2.15;;;;;;;;;;5032019;28;20109;-71
2022/03/27 06:35:20;;;;;;;11.82;2.17;;;;;;;;;;5032854;28;20214;-67
2022/03/27 06:37:46;;;;;;;2.92;1.95;;;;;;;;;;5043884;28;20040;-70
2022/03/27 06:40:13;;;;;;;3.72;2.20;;;;;;;;;;5026375;28;20048;-67
2022/03/27 06:42:40;;;;;;;5.40;2.00;;;;;;;;;;5041702;28;20377;-71
2022/03/27 06:45:06;;;;;;;9.07;2.00;;;;;;;;;;5042835;28;20102;-65
2022/03/27 06:47:33;;;;;;;2.40;2.17;;;;;;;;;;5040052;28;20033;-72
2022/03/27 06:49:59;;;;;;;4.05;1.90;;;;;;;;;;5040251;28;20053;-70
2022/03/27 06:52:26;;;;;;;4.07;2.05;;;;;;;;;;5040754;28;20018;-67
2022/03/27 06:54:53;;;;;;;8.13;1.90;;;;;;;;;;5017183;28;20029;-70
2022/03/27 06:57:20;;;;;;;2.50;2.00;;;;;;;;;;5020187;28;20427;-63
2022/03/27 07:05:15;;;;;;;9.25;2.15;;;;;;;;;;5039960;28;20064;-71
2022/03/27 07:07:44;;;;;;;4.38;2.00;;;;;;;;;;5040944;28;20385;-70
2022/03/27 07:10:11;;;;;;;19.15;2.22;;;;;;;;;;5040095;28;20034;-67
2022/03/27 07:12:37;;;;;;;12.82;2.25;;;;;;;;;;5025828;28;20452;-69
2022/03/27 07:15:04;;;;;;;19.58;1.90;;;;;;;;;;5036528;28;20056;-64
2022/03/27 07:17:30;;;;;;;6.80;1.90;;;;;;;;;;5038260;28;20045;-67
2022/03/27 07:19:56;;;;;;;5.20;2.28;;;;;;;;;;5043215;28;20038;-66
2022/03/27 07:22:22;;;;;;;5.68;1.83;;;;;;;;;;5045693;28;20043;-68
2022/03/27 07:24:48;;;;;;;19.30;2.05;;;;;;;;;;5051636;28;20021;-67
2022/03/27 07:27:14;;;;;;;47.10;2.70;;;;;;;;;;5041131;28;20044;-67
2022/03/27 07:29:40;;;;;;;30.23;2.60;;;;;;;;;;5015549;28;20040;-67
2022/03/27 07:32:07;;;;;;;32.28;2.63;;;;;;;;;;5026035;28;20054;-66
2022/03/27 07:34:33;;;;;;;27.55;2.65;;;;;;;;;;5038012;28;20491;-68
2022/03/27 07:36:59;;;;;;;11.25;2.17;;;;;;;;;;5050992;28;20049;-68
2022/03/27 07:39:25;;;;;;;13.27;2.40;;;;;;;;;;5054473;28;20021;-67
2022/03/27 07:41:51;;;;;;;10.00;2.22;;;;;;;;;;5035086;28;20033;-68
2022/03/27 07:44:17;;;;;;;12.55;2.20;;;;;;;;;;5034734;28;20416;-67
2022/03/27 07:46:44;;;;;;;15.65;2.40;;;;;;;;;;5039733;28;20480;-65
2022/03/27 07:49:10;;;;;;;8.35;2.55;;;;;;;;;;5037018;28;20021;-65
2022/03/27 07:51:36;;;;;;;8.98;2.08;;;;;;;;;;5035124;28;20029;-63
2022/03/27 07:54:03;;;;;;;6.18;2.13;;;;;;;;;;5017606;28;20021;-65
2022/03/27 07:56:32;;;;;;;6.05;2.60;;;;;;;;;;5037286;28;20035;-71
2022/03/27 07:58:58;;;;;;;9.15;2.70;;;;;;;;;;5046803;28;20030;-64
2022/03/27 08:01:24;;;;;;;7.82;2.63;;;;;;;;;;5035040;28;20574;-66
2022/03/27 08:03:51;;;;;;;4.78;2.42;;;;;;;;;;5051395;28;20120;-66
2022/03/27 08:06:17;;;;;;;4.40;2.83;;;;;;;;;;5039542;28;20487;-68
2022/03/27 08:08:43;;;;;;;4.38;2.53;;;;;;;;;;5053018;28;20033;-72
2022/03/27 08:11:09;;;;;;;4.35;2.47;;;;;;;;;;5047172;28;20060;-69
2022/03/27 08:13:35;;;;;;;2.92;2.63;;;;;;;;;;5040189;28;20495;-66
2022/03/27 08:16:01;;;;;;;5.28;2.67;;;;;;;;;;5035609;28;20068;-67
2022/03/27 08:18:27;;;;;;;6.63;3.03;;;;;;;;;;5027224;28;20033;-68
2022/03/27 08:20:53;;;;;;;11.25;2.95;;;;;;;;;;5034259;28;20030;-67
2022/03/27 08:23:19;;;;;;;4.93;2.50;;;;;;;;;;5040883;28;20022;-67
2022/03/27 08:28:31;;;;;;;8.68;3.08;;;;;;;;;;5033932;28;20086;-68
2022/03/27 08:30:57;;;;;;;12.70;2.50;;;;;;;;;;5023262;28;20095;-68
2022/03/27 08:33:23;;;;;;;5.53;2.67;;;;;;;;;;5029508;28;20029;-67
2022/03/27 08:35:49;;;;;;;6.65;2.60;;;;;;;;;;5047011;28;20026;-68
2022/03/27 08:38:16;;;;;;;3.00;2.65;;;;;;;;;;5033978;28;20029;-68
2022/03/27 08:40:43;;;;;;;3.75;2.90;;;;;;;;;;5015762;28;20037;-68
2022/03/27 08:43:10;;;;;;;4.60;3.13;;;;;;;;;;5031395;28;20045;-68
2022/03/27 08:45:36;;;;;;;4.35;2.20;;;;;;;;;;5035866;28;20408;-68
2022/03/27 08:48:02;;;;;;;5.15;2.70;;;;;;;;;;5033873;28;20026;-69
2022/03/27 08:50:31;;;;;;;3.90;2.97;;;;;;;;;;5036685;28;20083;-67
2022/03/27 08:53:00;;;;;;;5.63;2.83;;;;;;;;;;5045415;28;20451;-65
2022/03/27 08:55:50;;;;;;;4.90;2.70;;;;;;;;;;5053287;28;20123;-68
2022/03/27 08:58:18;;;;;;;3.38;2.50;;;;;;;;;;5042749;28;20108;-69
2022/03/27 09:00:44;;;;;;;2.72;2.53;;;;;;;;;;5036156;28;20025;-68
2022/03/27 09:03:10;;;;;;;3.15;2.25;;;;;;;;;;5042107;28;20049;-66
2022/03/27 09:05:40;;;;;;;3.30;2.42;;;;;;;;;;5043054;28;20037;-67
2022/03/27 09:08:09;;;;;;;3.45;2.60;;;;;;;;;;5014927;28;20519;-68
2022/03/27 09:10:35;;;;;;;3.83;3.00;;;;;;;;;;5017797;28;20473;-67
2022/03/27 09:13:02;;;;;;;5.22;2.58;;;;;;;;;;5033277;28;20036;-67
2022/03/27 09:15:28;;;;;;;5.18;2.35;;;;;;;;;;5033160;28;20064;-68
2022/03/27 09:18:02;;;;;;;3.90;2.63;;;;;;;;;;5031857;28;20035;-67
2022/03/27 09:20:34;;;;;;;3.90;2.42;;;;;;;;;;5036447;28;20079;-69
2022/03/27 09:23:26;;;;;;;3.90;3.00;;;;;;;;;;5028324;28;20045;-69
2022/03/27 09:25:56;;;;;;;3.77;2.67;;;;;;;;;;5008470;28;20487;-68
2022/03/27 09:28:42;;;;;;;4.15;2.80;;;;;;;;;;5032971;28;20059;-68
2022/03/27 09:31:17;;;;;;;4.47;3.17;;;;;;;;;;5028014;28;20029;-69
2022/03/27 09:33:48;;;;;;;4.45;3.00;;;;;;;;;;5026706;28;20473;-68
2022/03/27 09:36:14;;;;;;;5.78;3.08;;;;;;;;;;5036915;28;20033;-66
2022/03/27 09:38:40;;;;;;;4.38;2.60;;;;;;;;;;5025480;28;20040;-67
2022/03/27 09:41:07;;;;;;;4.05;3.10;;;;;;;;;;5032900;28;20527;-68
2022/03/27 09:43:33;;;;;;;3.63;3.10;;;;;;;;;;5011422;28;20033;-69
2022/03/27 09:46:03;;;;;;;6.35;2.95;;;;;;;;;;5029565;28;20152;-68
2022/03/27 09:48:29;;;;;;;3.22;2.70;;;;;;;;;;5035678;28;20032;-68
2022/03/27 09:50:58;;;;;;;3.53;2.80;;;;;;;;;;5032626;28;20053;-68
2022/03/27 09:53:25;;;;;;;4.47;3.00;;;;;;;;;;5039793;28;20112;-67
2022/03/27 09:55:54;;;;;;;3.88;2.95;;;;;;;;;;5033630;28;20093;-67
2022/03/27 09:58:36;;;;;;;8.05;3.00;;;;;;;;;;5027599;28;20767;-67
2022/03/27 10:01:09;;;;;;;2.97;2.65;;;;;;;;;;5041047;28;20017;-67
2022/03/27 10:03:35;;;;;;;;;;;;;;;;;;5027182;28;20034;-68
2022/03/27 10:06:02;;;;;;;3.67;3.10;;;;;;;;;;5034975;28;20050;-67
2022/03/27 10:08:29;;;;;;;3.45;2.90;;;;;;;;;;5039530;28;20025;-67
2022/03/27 10:10:58;;;;;;;4.47;3.20;;;;;;;;;;5024280;28;20057;-66
2022/03/27 10:13:29;;;;;;;3.72;3.15;;;;;;;;;;5037385;28;20035;-66
2022/03/27 10:15:57;;;;;;;3.97;2.67;;;;;;;;;;5034917;28;20492;-67
2022/03/27 10:18:23;;;;;;;5.50;2.90;;;;;;;;;;5032499;28;20445;-68
2022/03/27 10:20:52;;;;;;;5.70;2.63;;;;;;;;;;5031571;28;20068;-67
2022/03/27 10:23:21;;;;;;;5.22;2.90;;;;;;;;;;5035678;28;20017;-67
2022/03/27 10:25:50;;;;;;;3.40;2.45;;;;;;;;;;5031148;28;20484;-67
2022/03/27 10:28:18;;;;;;;6.68;2.80;;;;;;;;;;5034128;28;20028;-68
2022/03/27 10:30:46;;;;;;;3.55;2.63;;;;;;;;;;5043769;28;20144;-69
2022/03/27 10:33:13;;;;;;;6.13;2.97;;;;;;;;;;5039026;28;20042;-67
2022/03/27 10:35:48;;;;;;;7.00;2.58;;;;;;;;;;5041126;28;20767;-69
2022/03/27 10:38:29;;;;;;;7.53;2.80;;;;;;;;;;5039358;28;20037;-66
2022/03/27 10:41:14;;;;;;;2.97;2.67;;;;;;;;;;5025176;28;20043;-67
2022/03/27 10:43:52;;;;;;;4.93;2.75;;;;;;;;;;5042872;28;20460;-66
2022/03/27 10:46:18;;;;;;;4.13;2.22;;;;;;;;;;5039441;28;20025;-67
2022/03/27 10:48:45;;;;;;;4.20;2.10;;;;;;;;;;5040086;28;20033;-67
2022/03/27 10:51:12;;;;;;;5.20;2.38;;;;;;;;;;5035729;28;20491;-67
2022/03/27 10:53:38;;;;;;;2.95;2.33;;;;;;;;;;5036415;28;20483;-66
2022/03/27 10:56:04;;;;;;;3.17;2.22;;;;;;;;;;5041948;28;20039;-67
2022/03/27 10:58:35;;;;;;;5.35;2.53;;;;;;;;;;5040499;28;20104;-68
2022/03/27 11:01:03;;;;;;;3.28;2.50;;;;;;;;;;5043097;28;20105;-67
2022/03/27 11:03:49;;;;;;;5.40;2.70;;;;;;;;;;5045647;28;20519;-68
2022/03/27 11:06:29;;;;;;;5.53;2.20;;;;;;;;;;5032009;28;20021;-66
2022/03/27 11:08:56;;;;;;;5.22;2.30;;;;;;;;;;5037262;28;20039;-69
2022/03/27 11:11:34;;;;;;;3.88;2.40;;;;;;;;;;5038242;28;20025;-69
2022/03/27 11:14:01;;;;;;;7.80;2.25;;;;;;;;;;5033688;28;20434;-67
2022/03/27 11:16:27;;;;;;;3.65;2.30;;;;;;;;;;5043090;28;20049;-65
2022/03/27 11:18:53;;;;;;;6.65;2.30;;;;;;;;;;5042311;28;20021;-65
2022/03/27 11:21:28;;;;;;;4.78;2.38;;;;;;;;;;5043627;28;20025;-68
2022/03/27 11:23:55;;;;;;;5.97;2.03;;;;;;;;;;5019610;28;20049;-67
2022/03/27 11:26:21;;;;;;;4.55;2.20;;;;;;;;;;5021054;28;20108;-67
2022/03/27 11:28:50;;;;;;;2.33;1.75;;;;;;;;;;5040591;28;20120;-68
2022/03/27 11:31:17;;;;;;;3.40;1.83;;;;;;;;;;5044857;28;20552;-66
2022/03/27 11:33:45;;;;;;;7.13;1.83;;;;;;;;;;5040785;28;20034;-69
2022/03/27 11:36:12;;;;;;;8.23;2.65;;;;;;;;;;5043902;28;20087;-68
2022/03/27 11:38:47;;;;;;;7.97;2.20;;;;;;;;;;5043016;28;20052;-68
2022/03/27 11:41:22;;;;;;;4.00;1.80;;;;;;;;;;5042092;28;20099;-68
2022/03/27 11:43:49;;;;;;;2.55;1.67;;;;;;;;;;5039186;28;20033;-66
2022/03/27 11:46:24;;;;;;;5.60;1.88;;;;;;;;;;5025164;28;20045;-70
2022/03/27 11:48:54;;;;;;;5.28;2.08;;;;;;;;;;5042653;28;20473;-65
2022/03/27 11:51:21;;;;;;;2.30;1.50;;;;;;;;;;5044680;28;20048;-70
2022/03/27 11:53:47;;;;;;;3.17;1.45;;;;;;;;;;5035952;28;20056;-72
2022/03/27 11:56:13;;;;;;;4.25;1.80;;;;;;;;;;5013293;28;20025;-70
2022/03/27 11:58:42;;;;;;;2.60;1.40;;;;;;;;;;5029957;28;20021;-65
2022/03/27 12:01:09;;;;;;;2.15;1.30;;;;;;;;;;5030430;28;20472;-68
2022/03/27 12:03:36;;;;;;;5.85;1.35;;;;;;;;;;5040599;28;20469;-66
2022/03/27 12:06:10;;;;;;;5.05;1.20;;;;;;;;;;5019332;28;20116;-66
2022/03/27 12:08:40;;;;;;;3.35;1.15;;;;;;;;;;5042709;28;20055;-66
2022/03/27 12:11:07;;;;;;;3.50;1.35;;;;;;;;;;5040858;28;20033;-67
2022/03/27 12:13:37;;;;;;;4.40;1.20;;;;;;;;;;5050471;28;20060;-66
2022/03/27 12:16:03;;;;;;;5.82;1.30;;;;;;;;;;5037370;28;20059;-67
2022/03/27 12:18:30;;;;;;;1.45;1.00;;;;;;;;;;5016446;28;20029;-68
2022/03/27 12:20:56;;;;;;;2.70;1.30;;;;;;;;;;5034635;28;20100;-67
2022/03/27 12:23:22;;;;;;;4.03;1.35;;;;;;;;;;5034099;28;20105;-66
2022/03/27 12:29:39;;;;;;;3.90;1.25;;;;;;;;;;5034498;28;20112;-66
2022/03/27 12:31:39;;;;;;;3.35;1.20;;;;;;;;;;5005900;28;20301;-66
2022/03/27 12:34:05;;;;;;;1.60;1.08;;;;;;;;;;5034460;28;20029;-66
2022/03/27 12:36:31;;;;;;;5.43;1.50;;;;;;;;;;5054120;28;20029;-66
2022/03/27 12:38:57;;;;;;;3.47;1.38;;;;;;;;;;5053904;28;20028;-65
2022/03/27 12:41:35;;;;;;;2.13;1.20;;;;;;;;;;5047804;28;20082;-66
2022/03/27 12:44:02;;;;;;;4.93;1.40;;;;;;;;;;5033794;28;20037;-66
2022/03/27 12:46:28;;;;;;;3.22;1.20;;;;;;;;;;5029096;28;20025;-67
2022/03/27 12:48:58;;;;;;;3.70;1.33;;;;;;;;;;5051099;28;20025;-67
2022/03/27 12:51:24;;;;;;;7.22;1.42;;;;;;;;;;5033656;28;20120;-65
2022/03/27 12:54:01;;;;;;;2.55;1.00;;;;;;;;;;5033959;28;20484;-66
2022/03/27 12:56:27;;;;;;;4.13;1.00;;;;;;;;;;5036531;28;20060;-66
2022/03/27 12:58:53;;;;;;;3.55;1.30;;;;;;;;;;5040297;28;20080;-66
2022/03/27 13:01:20;;;;;;;2.38;0.85;;;;;;;;;;5039215;28;20025;-66
2022/03/27 13:04:07;;;;;;;2.97;0.90;;;;;;;;;;5040388;28;20036;-66
2022/03/27 13:06:43;;;;;;;4.18;1.00;;;;;;;;;;5047618;28;20117;-66
2022/03/27 13:09:10;;;;;;;3.17;1.02;;;;;;;;;;5034525;28;20075;-66
2022/03/27 13:11:43;;;;;;;3.00;1.00;;;;;;;;;;5048298;28;20037;-68
2022/03/27 13:14:09;;;;;;;2.58;0.90;;;;;;;;;;5025291;28;20079;-67
2022/03/27 13:16:45;;;;;;;4.18;0.90;;;;;;;;;;5035228;28;20387;-67
2022/03/27 13:19:11;;;;;;;3.22;0.95;;;;;;;;;;5035928;28;20025;-67
2022/03/27 13:21:46;;;;;;;2.13;0.80;;;;;;;;;;5042855;28;20036;-68
2022/03/27 13:24:15;;;;;;;2.83;0.90;;;;;;;;;;5043179;28;20031;-67
2022/03/27 13:26:53;;;;;;;3.63;1.00;;;;;;;;;;5033159;28;20832;-67
2022/03/27 13:29:20;;;;;;;2.22;0.75;;;;;;;;;;5035045;28;20028;-67
2022/03/27 13:31:47;;;;;;;2.25;0.75;;;;;;;;;;5039056;28;20033;-66
2022/03/27 13:34:13;;;;;;;3.25;0.85;;;;;;;;;;5052735;28;20029;-66
2022/03/27 13:36:41;;;;;;;1.58;0.70;;;;;;;;;;5053001;28;20032;-67
2022/03/27 13:39:07;;;;;;;7.82;1.10;;;;;;;;;;5052771;28;20021;-67
2022/03/27 13:44:19;;;;;;;2.28;0.80;;;;;;;;;;5050386;28;20148;-66
2022/03/27 13:46:45;;;;;;;1.70;0.70;;;;;;;;;;5028086;28;20039;-67
2022/03/27 13:49:11;;;;;;;3.60;0.80;;;;;;;;;;5029193;28;20334;-67
2022/03/27 13:51:37;;;;;;;2.53;0.63;;;;;;;;;;5034243;28;20045;-67
2022/03/27 13:54:03;;;;;;;4.28;0.73;;;;;;;;;;5035460;28;20028;-67
2022/03/27 13:56:36;;;;;;;5.50;1.10;;;;;;;;;;5015732;28;20030;-67
2022/03/27 13:59:02;;;;;;;1.58;0.73;;;;;;;;;;5034312;28;20021;-66
2022/03/27 14:01:29;;;;;;;2.15;0.82;;;;;;;;;;5038060;28;20030;-67
2022/03/27 14:03:55;;;;;;;4.63;1.10;;;;;;;;;;5046026;28;20083;-67
2022/03/27 14:06:21;;;;;;;1.52;0.80;;;;;;;;;;5034096;28;20083;-67
2022/03/27 14:08:47;;;;;;;2.72;0.77;;;;;;;;;;5032322;28;20040;-68
2022/03/27 14:11:13;;;;;;;2.00;0.90;;;;;;;;;;5035676;28;20437;-67
2022/03/27 14:13:39;;;;;;;3.17;0.80;;;;;;;;;;5044624;28;20427;-67
2022/03/27 14:16:05;;;;;;;2.97;0.80;;;;;;;;;;5013349;28;20524;-66
2022/03/27 14:18:31;;;;;;;3.53;0.95;;;;;;;;;;5023247;28;20055;-66
2022/03/27 14:20:57;;;;;;;6.28;1.02;;;;;;;;;;5018451;28;20096;-66
2022/03/27 14:23:24;;;;;;;2.92;0.70;;;;;;;;;;5012173;28;20025;-66
2022/03/27 14:25:50;;;;;;;3.28;1.05;;;;;;;;;;5012400;28;20030;-66
2022/03/27 14:28:16;;;;;;;3.22;1.10;;;;;;;;;;5011168;28;20040;-65
2022/03/27 14:30:42;;;;;;;4.65;0.90;;;;;;;;;;5014548;28;20088;-66
2022/03/27 14:33:08;;;;;;;4.78;0.82;;;;;;;;;;5012225;28;20122;-68
2022/03/27 14:35:34;;;;;;;1.92;0.80;;;;;;;;;;5010192;28;20030;-66
2022/03/27 14:38:00;;;;;;;4.20;0.90;;;;;;;;;;5007146;28;20109;-67
2022/03/27 14:40:26;;;;;;;3.22;0.82;;;;;;;;;;5028351;28;20152;-67
2022/03/27 14:42:52;;;;;;;3.30;1.15;;;;;;;;;;5015321;28;20109;-65
2022/03/27 14:45:18;;;;;;;2.25;1.10;;;;;;;;;;5022280;28;20360;-65
2022/03/27 14:47:44;;;;;;;4.88;1.13;;;;;;;;;;5021496;28;20080;-66
2022/03/27 14:50:14;;;;;;;1.70;0.80;;;;;;;;;;5012982;28;20053;-66
2022/03/27 14:52:41;;;;;;;4.25;1.10;;;;;;;;;;5018232;28;20366;-66
2022/03/27 14:57:54;;;;;;;3.30;1.00;;;;;;;;;;5016830;28;20045;-66
2022/03/27 15:00:20;;;;;;;5.20;1.50;;;;;;;;;;5017925;28;20083;-66
2022/03/27 15:02:46;;;;;;;3.97;1.30;;;;;;;;;;5004543;28;20032;-67